createdAt,value
2022-10-31T00:01:26.473Z,13.20
2022-10-31T00:03:53.459Z,13.10
2022-10-31T00:06:20.280Z,13.00
2022-10-31T00:08:48.758Z,12.90
2022-10-31T00:11:15.442Z,12.80
2022-10-31T00:13:42.157Z,12.60
2022-10-31T00:16:21.784Z,12.40
2022-10-31T00:18:53.034Z,12.50
2022-10-31T00:21:20.685Z,12.50
2022-10-31T00:23:47.634Z,12.50
2022-10-31T00:26:14.446Z,12.50
2022-10-31T00:28:41.183Z,12.40
2022-10-31T00:31:10.253Z,12.30
2022-10-31T00:33:38.817Z,12.30
2022-10-31T00:36:07.042Z,12.30
2022-10-31T00:38:34.380Z,12.20
2022-10-31T00:41:01.046Z,12.20
2022-10-31T00:43:30.639Z,12.00
2022-10-31T00:45:57.329Z,11.90
2022-10-31T00:48:24.158Z,11.90
2022-10-31T00:50:50.814Z,11.90
2022-10-31T00:53:17.526Z,11.80
2022-10-31T00:55:44.283Z,11.80
2022-10-31T00:58:10.950Z,11.70
2022-10-31T01:00:37.786Z,11.80
2022-10-31T01:03:04.464Z,11.70
2022-10-31T01:05:31.638Z,11.70
2022-10-31T01:07:58.914Z,11.70
2022-10-31T01:10:25.665Z,11.70
2022-10-31T01:12:52.404Z,11.80
2022-10-31T01:15:22.535Z,11.70
2022-10-31T01:17:50.473Z,11.70
2022-10-31T01:20:18.030Z,11.80
2022-10-31T01:22:44.784Z,11.80
2022-10-31T01:25:11.935Z,11.80
2022-10-31T01:27:38.615Z,11.80
2022-10-31T01:30:06.336Z,11.80
2022-10-31T01:32:33.262Z,11.70
2022-10-31T01:34:59.957Z,11.60
2022-10-31T01:37:26.652Z,11.60
2022-10-31T01:39:53.384Z,11.60
2022-10-31T01:42:22.702Z,11.70
2022-10-31T01:44:56.726Z,11.70
2022-10-31T01:47:38.772Z,11.70
2022-10-31T01:50:13.169Z,11.80
2022-10-31T01:52:42.366Z,11.90
2022-10-31T01:55:38.837Z,11.80
2022-10-31T01:58:12.897Z,11.90
2022-10-31T02:00:42.023Z,11.90
2022-10-31T02:03:08.898Z,11.80
2022-10-31T02:05:36.592Z,11.80
2022-10-31T02:08:21.231Z,11.80
2022-10-31T02:10:48.001Z,11.80
2022-10-31T02:13:15.217Z,11.70
2022-10-31T02:15:43.639Z,11.80
2022-10-31T02:18:10.529Z,11.80
2022-10-31T02:21:12.970Z,11.90
2022-10-31T02:24:08.316Z,12.00
2022-10-31T02:26:53.883Z,11.90
2022-10-31T02:29:54.638Z,11.60
2022-10-31T02:32:37.278Z,11.40
2022-10-31T02:35:12.879Z,11.20
2022-10-31T02:38:10.617Z,11.20
2022-10-31T02:40:49.757Z,11.10
2022-10-31T02:43:41.143Z,11.00
2022-10-31T02:46:30.005Z,11.00
2022-10-31T02:49:01.320Z,10.90
2022-10-31T02:51:28.298Z,11.00
2022-10-31T02:53:54.942Z,11.00
2022-10-31T02:56:21.700Z,11.00
2022-10-31T02:59:00.954Z,11.10
2022-10-31T03:01:34.863Z,11.30
2022-10-31T03:04:23.295Z,11.30
2022-10-31T03:07:08.914Z,11.20
2022-10-31T03:09:45.675Z,11.50
2022-10-31T03:12:24.936Z,11.60
2022-10-31T03:14:54.319Z,11.70
2022-10-31T03:17:34.842Z,11.80
2022-10-31T03:20:03.857Z,11.80
2022-10-31T03:22:33.975Z,12.00
2022-10-31T03:25:05.008Z,12.00
2022-10-31T03:27:34.833Z,12.20
2022-10-31T03:30:06.046Z,12.20
2022-10-31T03:32:52.363Z,12.30
2022-10-31T03:35:21.633Z,12.30
2022-10-31T03:37:50.393Z,12.10
2022-10-31T03:40:19.989Z,11.80
2022-10-31T03:42:55.364Z,11.70
2022-10-31T03:45:29.575Z,11.60
2022-10-31T03:47:58.989Z,11.50
2022-10-31T03:50:32.847Z,11.40
2022-10-31T03:53:12.711Z,11.50
2022-10-31T03:55:51.546Z,11.40
2022-10-31T03:58:51.306Z,11.40
2022-10-31T04:01:20.656Z,11.50
2022-10-31T04:03:47.927Z,11.60
2022-10-31T04:06:18.565Z,11.50
2022-10-31T04:08:53.101Z,11.50
2022-10-31T04:11:24.508Z,11.60
2022-10-31T04:13:52.462Z,11.60
2022-10-31T04:16:20.042Z,11.60
2022-10-31T04:18:46.768Z,11.60
2022-10-31T04:21:13.457Z,11.60
2022-10-31T04:23:40.117Z,11.60
2022-10-31T04:26:06.828Z,11.40
2022-10-31T04:28:34.681Z,11.30
2022-10-31T04:31:01.830Z,11.20
2022-10-31T04:33:28.538Z,11.30
2022-10-31T04:35:55.189Z,11.30
2022-10-31T04:38:21.806Z,11.40
2022-10-31T04:40:48.503Z,11.40
2022-10-31T04:43:15.207Z,11.50
2022-10-31T04:45:41.910Z,11.60
2022-10-31T04:48:08.543Z,11.60
2022-10-31T04:50:35.234Z,11.60
2022-10-31T04:53:01.871Z,11.50
2022-10-31T04:55:28.564Z,11.60
2022-10-31T04:57:55.254Z,11.60
2022-10-31T05:00:23.366Z,11.60
2022-10-31T05:02:52.273Z,11.40
2022-10-31T05:05:21.340Z,11.40
2022-10-31T05:07:49.077Z,11.30
2022-10-31T05:10:19.282Z,11.40
2022-10-31T05:12:50.550Z,11.40
2022-10-31T05:15:18.399Z,11.40
2022-10-31T05:17:45.363Z,11.30
2022-10-31T05:20:13.689Z,11.30
2022-10-31T05:22:48.320Z,11.30
2022-10-31T05:25:16.063Z,11.40
2022-10-31T05:27:44.300Z,11.40
2022-10-31T05:30:12.316Z,11.60
2022-10-31T05:32:43.524Z,11.50
2022-10-31T05:35:13.440Z,11.60
2022-10-31T05:37:40.076Z,11.50
2022-10-31T05:40:09.267Z,11.40
2022-10-31T05:42:36.696Z,11.40
2022-10-31T05:45:03.517Z,11.40
2022-10-31T05:47:30.192Z,11.40
2022-10-31T05:49:56.992Z,11.40
2022-10-31T05:52:23.667Z,11.50
2022-10-31T05:54:50.340Z,11.60
2022-10-31T05:57:16.992Z,11.60
2022-10-31T05:59:43.756Z,11.80
2022-10-31T06:02:10.739Z,11.80
2022-10-31T06:04:37.418Z,11.80
2022-10-31T06:07:05.243Z,11.90
2022-10-31T06:09:31.896Z,11.90
2022-10-31T06:11:58.563Z,12.00
2022-10-31T06:14:25.220Z,12.30
2022-10-31T06:16:51.961Z,12.60
2022-10-31T06:19:18.636Z,12.80
2022-10-31T06:21:45.342Z,12.80
2022-10-31T06:24:12.040Z,12.90
2022-10-31T06:26:38.788Z,13.00
2022-10-31T06:29:05.513Z,13.20
2022-10-31T06:31:32.161Z,13.20
2022-10-31T06:33:58.820Z,13.30
2022-10-31T06:36:25.481Z,13.30
2022-10-31T06:38:52.130Z,13.30
2022-10-31T06:41:18.792Z,13.40
2022-10-31T06:43:48.252Z,13.60
2022-10-31T06:46:14.942Z,13.70
2022-10-31T06:48:42.897Z,13.90
2022-10-31T06:51:09.584Z,14.00
2022-10-31T06:53:36.225Z,14.40
2022-10-31T06:56:02.929Z,14.60
2022-10-31T06:58:29.620Z,14.80
2022-10-31T07:00:56.320Z,14.90
2022-10-31T07:03:23.305Z,14.90
2022-10-31T07:05:50.073Z,15.20
2022-10-31T07:08:16.752Z,15.30
2022-10-31T07:10:44.374Z,15.20
2022-10-31T07:13:14.011Z,15.50
2022-10-31T07:15:42.772Z,15.80
2022-10-31T07:18:11.785Z,15.90
2022-10-31T07:20:38.673Z,16.10
2022-10-31T07:23:05.986Z,16.40
2022-10-31T07:25:33.029Z,16.50
2022-10-31T07:28:00.351Z,16.40
2022-10-31T07:30:27.423Z,16.40
2022-10-31T07:32:54.130Z,16.50
2022-10-31T07:35:23.662Z,16.70
2022-10-31T07:37:50.713Z,16.80
2022-10-31T07:40:18.719Z,17.00
2022-10-31T07:42:50.258Z,17.30
2022-10-31T07:45:20.826Z,17.70
2022-10-31T07:47:52.841Z,17.90
2022-10-31T07:50:22.311Z,18.20
2022-10-31T07:52:49.418Z,18.40
2022-10-31T07:55:16.212Z,18.80
2022-10-31T07:57:43.161Z,19.20
2022-10-31T08:00:11.512Z,19.40
2022-10-31T08:02:38.162Z,19.60
2022-10-31T08:05:05.090Z,20.00
2022-10-31T08:07:37.571Z,20.40
2022-10-31T08:10:05.129Z,20.50
2022-10-31T08:12:31.899Z,20.70
2022-10-31T08:14:58.611Z,20.80
2022-10-31T08:17:34.743Z,20.60
2022-10-31T08:20:01.470Z,21.10
2022-10-31T08:22:28.144Z,21.30
2022-10-31T08:24:54.836Z,21.20
2022-10-31T08:27:21.588Z,21.60
2022-10-31T08:29:48.382Z,21.70
2022-10-31T08:32:15.102Z,21.80
2022-10-31T08:34:41.722Z,21.90
2022-10-31T08:37:08.371Z,22.00
2022-10-31T08:39:35.004Z,22.30
2022-10-31T08:42:01.657Z,22.50
2022-10-31T08:44:28.305Z,22.40
2022-10-31T08:46:54.987Z,22.30
2022-10-31T08:49:21.668Z,22.80
2022-10-31T08:51:49.549Z,22.70
2022-10-31T08:54:16.202Z,22.70
2022-10-31T08:56:42.854Z,23.10
2022-10-31T08:59:09.510Z,22.80
2022-10-31T09:01:36.290Z,22.20
2022-10-31T09:04:03.032Z,22.90
2022-10-31T09:06:29.726Z,23.30
2022-10-31T09:08:56.413Z,23.20
2022-10-31T09:11:23.077Z,23.60
2022-10-31T09:13:49.722Z,23.40
2022-10-31T09:16:16.391Z,23.80
2022-10-31T09:18:43.205Z,23.70
2022-10-31T09:21:09.930Z,23.70
2022-10-31T09:23:36.587Z,24.00
2022-10-31T09:26:04.532Z,23.30
2022-10-31T09:28:32.740Z,23.70
2022-10-31T09:30:59.430Z,23.60
2022-10-31T09:33:26.147Z,23.20
2022-10-31T09:35:53.357Z,23.80
2022-10-31T09:38:21.809Z,24.00
2022-10-31T09:41:07.394Z,23.80
2022-10-31T09:44:05.838Z,23.90
2022-10-31T09:46:45.644Z,24.40
2022-10-31T09:49:31.558Z,24.30
2022-10-31T09:52:05.886Z,24.50
2022-10-31T09:54:45.012Z,24.60
2022-10-31T09:57:17.785Z,24.70
2022-10-31T09:59:50.032Z,24.50
2022-10-31T10:02:23.463Z,24.80
2022-10-31T10:04:50.113Z,24.80
2022-10-31T10:07:33.320Z,24.60
2022-10-31T10:10:31.983Z,24.80
2022-10-31T10:13:21.520Z,25.00
2022-10-31T10:16:12.845Z,25.20
2022-10-31T10:18:55.359Z,25.30
2022-10-31T10:21:46.113Z,24.90
2022-10-31T10:24:33.260Z,25.10
2022-10-31T10:27:25.521Z,25.10
2022-10-31T10:30:01.448Z,25.20
2022-10-31T10:32:32.264Z,25.10
2022-10-31T10:35:05.727Z,25.40
2022-10-31T10:37:39.087Z,25.30
2022-10-31T10:40:27.957Z,25.40
2022-10-31T10:43:23.910Z,25.40
2022-10-31T10:46:28.125Z,25.50
2022-10-31T10:49:24.154Z,25.70
2022-10-31T10:52:40.401Z,25.50
2022-10-31T10:55:38.485Z,25.50
2022-10-31T10:58:08.780Z,25.70
2022-10-31T11:00:50.442Z,25.80
2022-10-31T11:03:18.933Z,25.60
2022-10-31T11:05:59.264Z,25.80
2022-10-31T11:08:34.263Z,25.80
2022-10-31T11:11:26.402Z,25.90
2022-10-31T11:14:05.426Z,25.80
2022-10-31T11:16:40.970Z,25.70
2022-10-31T11:19:21.227Z,25.80
2022-10-31T11:21:52.763Z,25.80
2022-10-31T11:24:23.985Z,25.70
2022-10-31T11:26:51.958Z,25.70
2022-10-31T11:29:22.705Z,25.80
2022-10-31T11:31:53.811Z,25.60
2022-10-31T11:34:28.059Z,25.60
2022-10-31T11:36:55.503Z,25.30
2022-10-31T11:39:25.489Z,25.20
2022-10-31T11:41:55.048Z,25.10
2022-10-31T11:44:31.326Z,25.20
2022-10-31T11:47:07.220Z,25.20
2022-10-31T11:49:40.876Z,25.20
2022-10-31T11:52:15.521Z,24.90
2022-10-31T11:55:02.404Z,25.00
2022-10-31T11:57:29.074Z,24.60
2022-10-31T11:59:58.034Z,24.80
2022-10-31T12:02:25.550Z,24.90
2022-10-31T12:05:05.380Z,24.70
2022-10-31T12:07:32.575Z,24.70
2022-10-31T12:09:59.236Z,24.80
2022-10-31T12:12:43.478Z,24.60
2022-10-31T12:15:28.488Z,24.40
2022-10-31T12:22:06.186Z,24.30
2022-10-31T12:24:42.125Z,24.10
2022-10-31T12:27:25.885Z,24.20
2022-10-31T12:30:13.897Z,24.00
2022-10-31T12:33:11.526Z,24.10
2022-10-31T12:35:47.716Z,24.10
2022-10-31T12:38:31.570Z,24.00
2022-10-31T12:41:21.580Z,23.90
2022-10-31T12:44:07.219Z,23.70
2022-10-31T12:46:55.416Z,23.70
2022-10-31T12:49:43.693Z,23.80
2022-10-31T12:52:25.268Z,23.60
2022-10-31T12:55:04.592Z,23.30
2022-10-31T12:57:43.205Z,23.50
2022-10-31T13:00:18.585Z,23.80
2022-10-31T13:03:17.113Z,23.50
2022-10-31T13:05:47.875Z,23.50
2022-10-31T13:08:30.499Z,23.70
2022-10-31T13:11:21.833Z,23.30
2022-10-31T13:13:57.629Z,23.30
2022-10-31T13:16:30.264Z,23.50
2022-10-31T13:19:18.125Z,23.00
2022-10-31T13:21:57.083Z,23.30
2022-10-31T13:24:45.311Z,23.40
2022-10-31T13:27:19.147Z,23.00
2022-10-31T13:30:11.475Z,23.20
2022-10-31T13:32:47.724Z,23.20
2022-10-31T13:35:26.997Z,23.30
2022-10-31T13:38:17.367Z,23.20
2022-10-31T13:40:58.159Z,23.10
2022-10-31T13:43:33.782Z,23.20
2022-10-31T13:46:00.515Z,23.10
2022-10-31T13:48:30.146Z,23.20
2022-10-31T13:51:03.161Z,23.10
2022-10-31T13:53:40.668Z,22.90
2022-10-31T13:56:10.145Z,22.80
2022-10-31T13:58:37.221Z,23.00
2022-10-31T14:01:03.890Z,22.90
2022-10-31T14:04:02.218Z,23.10
2022-10-31T14:06:19.968Z,22.80
2022-10-31T14:08:52.503Z,23.00
2022-10-31T14:11:32.978Z,22.90
2022-10-31T14:14:03.135Z,23.10
2022-10-31T14:16:33.225Z,23.00
2022-10-31T14:19:17.498Z,22.90
2022-10-31T14:21:46.601Z,22.80
2022-10-31T14:24:25.417Z,22.80
2022-10-31T14:27:04.784Z,22.80
2022-10-31T14:29:33.713Z,22.70
2022-10-31T14:32:11.760Z,22.60
2022-10-31T14:34:59.783Z,22.50
2022-10-31T14:37:57.858Z,22.40
2022-10-31T14:40:28.558Z,22.30
2022-10-31T14:43:10.294Z,22.20
2022-10-31T14:45:50.567Z,22.10
2022-10-31T14:48:48.139Z,22.00
2022-10-31T14:51:23.830Z,21.80
2022-10-31T14:53:55.160Z,21.60
2022-10-31T14:56:29.030Z,21.60
2022-10-31T14:58:58.981Z,21.50
2022-10-31T15:01:28.956Z,21.40
2022-10-31T15:07:10.424Z,21.20
2022-10-31T15:09:38.921Z,21.00
2022-10-31T15:12:25.281Z,20.90
2022-10-31T15:14:52.952Z,20.80
2022-10-31T15:17:21.230Z,20.70
2022-10-31T15:19:48.362Z,20.50
2022-10-31T15:22:20.699Z,20.50
2022-10-31T15:24:49.490Z,20.40
2022-10-31T15:27:19.734Z,20.30
2022-10-31T15:29:54.381Z,20.20
2022-10-31T15:32:23.447Z,20.20
2022-10-31T15:34:52.503Z,20.10
2022-10-31T15:37:21.963Z,20.00
2022-10-31T15:39:50.160Z,19.90
2022-10-31T15:42:30.157Z,19.70
2022-10-31T15:45:17.228Z,19.70
2022-10-31T15:47:55.850Z,19.60
2022-10-31T15:50:33.443Z,19.60
2022-10-31T15:53:01.532Z,19.30
2022-10-31T15:55:33.675Z,19.50
2022-10-31T15:58:05.696Z,19.20
2022-10-31T16:00:35.487Z,19.30
2022-10-31T16:03:27.025Z,19.20
2022-10-31T16:05:55.870Z,19.00
2022-10-31T16:08:31.857Z,19.00
2022-10-31T16:11:17.172Z,18.70
2022-10-31T16:14:03.629Z,18.60
2022-10-31T16:16:35.588Z,18.40
2022-10-31T16:19:06.557Z,18.20
2022-10-31T16:21:38.598Z,18.10
2022-10-31T16:24:19.760Z,18.00
2022-10-31T16:26:52.340Z,18.10
2022-10-31T16:29:33.722Z,18.00
2022-10-31T16:32:00.475Z,17.80
2022-10-31T16:34:27.373Z,17.50
2022-10-31T16:36:54.523Z,17.40
2022-10-31T16:39:22.039Z,17.30
2022-10-31T16:41:55.742Z,17.20
2022-10-31T16:44:27.692Z,17.10
2022-10-31T16:47:17.115Z,17.00
2022-10-31T16:49:47.195Z,16.90
2022-10-31T16:52:13.902Z,16.80
2022-10-31T16:54:40.685Z,16.70
2022-10-31T16:57:07.753Z,16.60
2022-10-31T16:59:35.126Z,16.50
2022-10-31T17:02:03.963Z,16.30
2022-10-31T17:04:30.739Z,16.10
2022-10-31T17:06:59.542Z,15.90
2022-10-31T17:09:26.869Z,15.80
2022-10-31T17:11:54.576Z,15.80
2022-10-31T17:14:22.108Z,15.90
2022-10-31T17:16:49.414Z,15.80
2022-10-31T17:19:16.122Z,15.60
2022-10-31T17:21:42.971Z,15.60
2022-10-31T17:24:14.078Z,15.70
2022-10-31T17:26:41.356Z,15.80
2022-10-31T17:29:08.455Z,15.90
2022-10-31T17:31:42.201Z,15.90
2022-10-31T17:34:09.344Z,15.90
2022-10-31T17:36:36.918Z,16.00
2022-10-31T17:39:05.773Z,16.00
2022-10-31T17:41:32.452Z,16.00
2022-10-31T17:43:59.999Z,16.10
2022-10-31T17:46:28.411Z,16.20
2022-10-31T17:48:55.166Z,16.30
2022-10-31T17:51:22.042Z,16.40
2022-10-31T17:53:48.723Z,16.40
2022-10-31T17:56:15.393Z,16.50
2022-10-31T17:58:42.191Z,16.50
2022-10-31T18:01:15.405Z,16.50
2022-10-31T18:03:42.433Z,16.50
2022-10-31T18:06:10.600Z,16.30
2022-10-31T18:08:40.447Z,16.10
2022-10-31T18:11:17.531Z,16.10
2022-10-31T18:13:44.274Z,16.20
2022-10-31T18:16:14.345Z,16.10
2022-10-31T18:18:41.460Z,16.10
2022-10-31T18:21:08.351Z,16.10
2022-10-31T18:23:35.013Z,15.90
2022-10-31T18:26:01.972Z,15.50
2022-10-31T18:28:28.754Z,15.30
2022-10-31T18:30:58.142Z,15.20
2022-10-31T18:33:24.799Z,15.10
2022-10-31T18:35:51.535Z,15.20
2022-10-31T18:38:18.240Z,15.40
2022-10-31T18:40:44.907Z,15.40
2022-10-31T18:43:11.607Z,15.30
2022-10-31T18:45:47.275Z,15.50
2022-10-31T18:48:17.232Z,15.60
2022-10-31T18:50:44.017Z,15.40
2022-10-31T18:53:10.686Z,15.40
2022-10-31T18:55:45.406Z,15.20
2022-10-31T18:58:16.329Z,15.10
2022-10-31T19:00:43.073Z,15.10
2022-10-31T19:03:09.857Z,15.10
2022-10-31T19:05:36.527Z,14.80
2022-10-31T19:08:03.614Z,14.80
2022-10-31T19:10:30.386Z,14.50
2022-10-31T19:12:57.058Z,14.70
2022-10-31T19:15:23.729Z,14.60
2022-10-31T19:17:50.636Z,14.30
2022-10-31T19:20:17.404Z,14.20
2022-10-31T19:22:44.187Z,14.10
2022-10-31T19:25:11.272Z,13.90
2022-10-31T19:27:38.838Z,13.80
2022-10-31T19:30:07.456Z,13.70
2022-10-31T19:32:34.670Z,13.50
2022-10-31T19:35:01.357Z,13.60
2022-10-31T19:37:28.362Z,13.70
2022-10-31T19:39:55.468Z,13.70
2022-10-31T19:42:24.335Z,13.80
2022-10-31T19:44:51.051Z,13.90
2022-10-31T19:47:17.805Z,13.90
2022-10-31T19:49:44.450Z,13.90
2022-10-31T19:52:11.149Z,13.80
2022-10-31T19:54:37.917Z,13.70
2022-10-31T19:57:04.586Z,13.80
2022-10-31T19:59:33.993Z,13.80
2022-10-31T20:02:04.846Z,13.90
2022-10-31T20:04:31.568Z,13.80
2022-10-31T20:06:58.206Z,14.00
2022-10-31T20:09:25.556Z,13.90
2022-10-31T20:11:52.319Z,13.90
2022-10-31T20:14:19.072Z,13.90
2022-10-31T20:16:45.916Z,13.90
2022-10-31T20:19:12.605Z,14.10
2022-10-31T20:21:40.216Z,14.00
2022-10-31T20:24:10.320Z,14.00
2022-10-31T20:26:39.798Z,13.80
2022-10-31T20:29:06.619Z,13.70
2022-10-31T20:31:35.950Z,13.60
2022-10-31T20:34:03.038Z,13.50
2022-10-31T20:36:30.867Z,13.50
2022-10-31T20:38:58.653Z,13.20
2022-10-31T20:41:25.449Z,13.20
2022-10-31T20:43:52.541Z,13.10
2022-10-31T20:46:25.187Z,13.00
2022-10-31T20:48:52.824Z,12.90
2022-10-31T20:51:21.989Z,13.00
2022-10-31T20:53:50.202Z,13.10
2022-10-31T20:56:20.023Z,13.10
2022-10-31T20:58:47.561Z,13.20
2022-10-31T21:01:17.558Z,13.20
2022-10-31T21:03:44.908Z,13.00
2022-10-31T21:06:12.391Z,12.90
2022-10-31T21:08:39.911Z,13.00
2022-10-31T21:11:15.976Z,13.20
2022-10-31T21:13:44.564Z,13.50
2022-10-31T21:16:14.586Z,13.70
2022-10-31T21:18:43.666Z,13.90
2022-10-31T21:21:13.109Z,14.00
2022-10-31T21:23:40.579Z,14.10
2022-10-31T21:26:17.729Z,14.20
2022-10-31T21:28:44.756Z,14.20
2022-10-31T21:31:14.766Z,14.30
2022-10-31T21:33:42.450Z,14.30
2022-10-31T21:36:09.893Z,14.20
2022-10-31T21:38:37.157Z,14.10
2022-10-31T21:41:06.661Z,14.10
2022-10-31T21:43:37.272Z,14.10
2022-10-31T21:48:30.442Z,14.00
2022-10-31T21:50:57.214Z,14.10
2022-10-31T21:53:42.325Z,14.20
2022-10-31T21:56:09.016Z,14.30
2022-10-31T21:58:37.811Z,14.50
2022-10-31T22:01:05.766Z,14.60
2022-10-31T22:03:36.715Z,14.60
2022-10-31T22:06:05.123Z,14.80
2022-10-31T22:08:32.274Z,14.70
2022-10-31T22:11:06.397Z,14.60
2022-10-31T22:13:34.327Z,14.40
2022-10-31T22:16:02.604Z,14.20
2022-10-31T22:18:29.320Z,14.30
2022-10-31T22:21:06.739Z,14.30
2022-10-31T22:23:33.859Z,14.30
2022-10-31T22:26:14.503Z,14.30
2022-10-31T22:28:55.836Z,14.30
2022-10-31T22:31:23.792Z,14.20
2022-10-31T22:33:50.966Z,14.30
2022-10-31T22:36:22.969Z,14.10
2022-10-31T22:38:49.844Z,14.20
2022-10-31T22:41:19.110Z,14.20
2022-10-31T22:43:46.784Z,14.30
2022-10-31T22:46:19.338Z,14.30
2022-10-31T22:48:48.010Z,14.30
2022-10-31T22:51:23.720Z,14.30
2022-10-31T22:53:51.226Z,14.30
2022-10-31T22:56:20.941Z,14.40
2022-10-31T22:58:48.497Z,14.30
2022-10-31T23:01:20.439Z,14.20
2022-10-31T23:03:48.566Z,14.20
2022-10-31T23:06:18.477Z,14.20
2022-10-31T23:08:46.260Z,14.30
2022-10-31T23:11:19.555Z,14.20
2022-10-31T23:14:06.500Z,14.10
2022-10-31T23:16:33.621Z,14.10
2022-10-31T23:19:00.677Z,14.20
2022-10-31T23:21:46.716Z,14.20
2022-10-31T23:24:13.437Z,14.20
2022-10-31T23:26:58.772Z,14.20
2022-10-31T23:29:25.429Z,14.30
2022-10-31T23:31:54.539Z,14.10
2022-10-31T23:34:22.696Z,14.20
2022-10-31T23:36:49.621Z,14.20
2022-10-31T23:39:18.860Z,14.10
2022-10-31T23:41:48.132Z,14.10
2022-10-31T23:44:14.873Z,14.10
2022-10-31T23:46:41.604Z,14.10
2022-10-31T23:49:08.512Z,14.00
2022-10-31T23:51:35.255Z,14.00
2022-10-31T23:54:01.956Z,14.10
2022-10-31T23:56:28.577Z,14.00
2022-10-31T23:58:55.316Z,14.00
